Terrace Airport
CYXT : now visible

Airfield :











YOU CAN JOIN US ON...

 
LOGIN :

Register | Disclaimer

   EN    FR    IT 

 









Legend :    VFR   Marginal VFR   IFR   Intensive IFR   Very Intensive IFR
Visi :
Ceiling :
>= 8 km
>= 3000ft
5 to 8 km
1000 to 3000 ft
1500m to 5 km
500 to 1000 ft
800 to 1500m
200 to 500 ft
< 800m
< 200 ft
Symbols :   Thunderstorms  Fog  Heavy snow  Heavy precipitations  Wind > 20 kt






- Airport Elevation : 713 ft
- IATA code : YXT


CYXT - Terrace

CURRENT METAR :
  • 270307Z 08004KT 5SM -RA BR SCT002 BKN018 OVC024 01/01 A2959 RMK FG1SF3SC2SC2 SLP031

EXPIRED METARs :
  • 270225Z 14004KT 050V150 3SM -RA BR VCFG BKN002 OVC018 01/01 A2959 RMK FG2SF3SC3 SLP030
  • 270200Z VRB02KT 6SM -RA BR FEW003 BKN018 BKN025 OVC038 01/01 A2959 RMK SF2SC3SC2SC1 SLP031
  • 270100Z VRB02KT 6SM -SHRA BR FEW003 BKN018 BKN033 OVC044 01/01 A2958 RMK CF2CU3CU2CU1 SLP028

TAF AMD TAF CYXT
Valid from the 27 at 02:00 until the 27 at 13:00 UTC


270237Z 2702/2713 15007KT 6SM -RA SCT002 BKN020 OVC050
TEMPO 2702/2708 1SM -SHRA BR BKN002 OVC020
FM270800 17015KT P6SM FEW008 SCT015 BKN030
TEMPO 2708/2713 5SM -SHRA BR SCT005 BKN015 OVC030
PROB30 2708/2713 2SM BR OVC005 RMK NXT FCST BY 270700Z



MET'MAP, your aeronautical weather chart ! - Copyright ORBIFLY December 2007 - Disclaimer

ORBIFLY MET'MAP TEAM :

Programming & Development : Alexandra Zaïnal
Concept & original design : Baudouin d'Aumeries
Assistance for programming : Marc-Olivier Méhu
Technical & hardware support : Manuel Goepfert

Contact : metmap@orbifly.com




SOURCES & CREDITS :

   NOAA       Earth
Advisory